sensor_id;sensor_type;location;lat;lon;timestamp;pressure;altitude;pressure_sealevel;temperature;humidity
73429;BME280;61643;49.564;17.412;2023-02-22T00:00:29;98235.16;;;6.73;100.00
73429;BME280;61643;49.564;17.412;2023-02-22T00:03:19;98227.25;;;6.78;100.00
73429;BME280;61643;49.564;17.412;2023-02-22T00:05:51;98223.75;;;6.78;100.00
73429;BME280;61643;49.564;17.412;2023-02-22T00:08:20;98217.94;;;6.69;100.00
73429;BME280;61643;49.564;17.412;2023-02-22T00:10:46;98215.16;;;6.76;100.00
73429;BME280;61643;49.564;17.412;2023-02-22T00:13:17;98213.97;;;6.60;100.00
73429;BME280;61643;49.564;17.412;2023-02-22T00:15:44;98221.66;;;6.68;100.00
73429;BME280;61643;49.564;17.412;2023-02-22T00:18:14;98223.19;;;6.76;100.00
73429;BME280;61643;49.564;17.412;2023-02-22T00:20:41;98226.19;;;6.68;100.00
73429;BME280;61643;49.564;17.412;2023-02-22T00:23:13;98220.75;;;6.74;100.00
73429;BME280;61643;49.564;17.412;2023-02-22T00:25:40;98226.44;;;6.78;100.00
73429;BME280;61643;49.564;17.412;2023-02-22T00:28:06;98229.72;;;6.80;100.00
73429;BME280;61643;49.564;17.412;2023-02-22T00:30:32;98222.72;;;6.67;100.00
73429;BME280;61643;49.564;17.412;2023-02-22T00:33:01;98222.13;;;6.65;100.00
73429;BME280;61643;49.564;17.412;2023-02-22T00:35:28;98221.88;;;6.55;100.00
73429;BME280;61643;49.564;17.412;2023-02-22T00:37:57;98227.94;;;6.62;100.00
73429;BME280;61643;49.564;17.412;2023-02-22T00:40:26;98225.50;;;6.61;100.00
73429;BME280;61643;49.564;17.412;2023-02-22T00:42:53;98237.47;;;6.70;100.00
73429;BME280;61643;49.564;17.412;2023-02-22T00:45:21;98232.84;;;6.65;100.00
73429;BME280;61643;49.564;17.412;2023-02-22T00:47:48;98231.56;;;6.68;100.00
73429;BME280;61643;49.564;17.412;2023-02-22T00:50:15;98234.22;;;6.68;100.00
73429;BME280;61643;49.564;17.412;2023-02-22T00:52:42;98232.38;;;6.68;100.00
73429;BME280;61643;49.564;17.412;2023-02-22T00:55:09;98225.97;;;6.58;100.00
73429;BME280;61643;49.564;17.412;2023-02-22T00:57:36;98226.88;;;6.52;100.00
73429;BME280;61643;49.564;17.412;2023-02-22T01:00:04;98238.28;;;6.47;100.00
73429;BME280;61643;49.564;17.412;2023-02-22T01:02:40;98233.75;;;6.59;100.00
73429;BME280;61643;49.564;17.412;2023-02-22T01:05:09;98238.16;;;6.54;100.00
73429;BME280;61643;49.564;17.412;2023-02-22T01:07:38;98237.00;;;6.50;100.00
73429;BME280;61643;49.564;17.412;2023-02-22T01:10:07;98230.34;;;6.52;100.00
73429;BME280;61643;49.564;17.412;2023-02-22T01:12:36;98225.63;;;6.54;100.00
73429;BME280;61643;49.564;17.412;2023-02-22T01:15:03;98238.25;;;6.59;100.00
73429;BME280;61643;49.564;17.412;2023-02-22T01:17:30;98229.19;;;6.48;100.00
73429;BME280;61643;49.564;17.412;2023-02-22T01:19:56;98226.88;;;6.52;100.00
73429;BME280;61643;49.564;17.412;2023-02-22T01:22:22;98225.38;;;6.56;100.00
73429;BME280;61643;49.564;17.412;2023-02-22T01:24:49;98228.63;;;6.58;100.00
73429;BME280;61643;49.564;17.412;2023-02-22T01:27:15;98230.50;;;6.57;100.00
73429;BME280;61643;49.564;17.412;2023-02-22T01:29:43;98229.31;;;6.53;100.00
73429;BME280;61643;49.564;17.412;2023-02-22T01:32:09;98218.63;;;6.53;100.00
73429;BME280;61643;49.564;17.412;2023-02-22T01:34:37;98224.78;;;6.54;100.00
73429;BME280;61643;49.564;17.412;2023-02-22T01:37:03;98219.44;;;6.54;100.00
73429;BME280;61643;49.564;17.412;2023-02-22T01:39:31;98227.13;;;6.50;100.00
73429;BME280;61643;49.564;17.412;2023-02-22T01:41:57;98224.66;;;6.49;100.00
73429;BME280;61643;49.564;17.412;2023-02-22T01:44:30;98226.97;;;6.45;100.00
73429;BME280;61643;49.564;17.412;2023-02-22T01:46:58;98221.63;;;6.45;100.00
73429;BME280;61643;49.564;17.412;2023-02-22T01:49:29;98217.69;;;6.36;100.00
73429;BME280;61643;49.564;17.412;2023-02-22T01:51:58;98212.44;;;6.41;100.00
73429;BME280;61643;49.564;17.412;2023-02-22T01:54:34;98221.75;;;6.38;100.00
73429;BME280;61643;49.564;17.412;2023-02-22T01:57:17;98218.34;;;6.31;100.00
73429;BME280;61643;49.564;17.412;2023-02-22T01:59:48;98215.22;;;6.34;100.00
73429;BME280;61643;49.564;17.412;2023-02-22T02:02:17;98207.53;;;6.26;100.00
73429;BME280;61643;49.564;17.412;2023-02-22T02:04:44;98208.34;;;6.27;100.00
73429;BME280;61643;49.564;17.412;2023-02-22T02:07:12;98213.22;;;6.18;100.00
73429;BME280;61643;49.564;17.412;2023-02-22T02:09:58;98216.94;;;6.17;100.00
73429;BME280;61643;49.564;17.412;2023-02-22T02:12:27;98215.19;;;6.11;100.00
73429;BME280;61643;49.564;17.412;2023-02-22T02:17:47;98225.31;;;6.21;100.00
73429;BME280;61643;49.564;17.412;2023-02-22T02:20:16;98222.38;;;6.22;100.00
73429;BME280;61643;49.564;17.412;2023-02-22T02:25:43;98221.28;;;6.00;100.00
73429;BME280;61643;49.564;17.412;2023-02-22T02:31:05;98219.03;;;6.27;100.00
73429;BME280;61643;49.564;17.412;2023-02-22T02:33:50;98217.72;;;6.06;100.00
73429;BME280;61643;49.564;17.412;2023-02-22T02:36:24;98213.28;;;6.00;100.00
73429;BME280;61643;49.564;17.412;2023-02-22T02:38:54;98213.59;;;5.92;100.00
73429;BME280;61643;49.564;17.412;2023-02-22T02:41:30;98215.97;;;6.00;100.00
73429;BME280;61643;49.564;17.412;2023-02-22T02:44:01;98217.59;;;6.13;100.00
73429;BME280;61643;49.564;17.412;2023-02-22T02:46:59;98224.81;;;6.12;100.00
73429;BME280;61643;49.564;17.412;2023-02-22T02:49:42;98224.59;;;6.14;100.00
73429;BME280;61643;49.564;17.412;2023-02-22T02:52:11;98216.88;;;6.06;100.00
73429;BME280;61643;49.564;17.412;2023-02-22T02:54:38;98218.28;;;6.08;100.00
73429;BME280;61643;49.564;17.412;2023-02-22T02:57:05;98208.06;;;6.05;100.00
73429;BME280;61643;49.564;17.412;2023-02-22T02:59:36;98208.91;;;6.17;100.00
73429;BME280;61643;49.564;17.412;2023-02-22T03:05:15;98206.50;;;6.27;100.00
73429;BME280;61643;49.564;17.412;2023-02-22T03:15:55;98206.53;;;5.98;100.00
73429;BME280;61643;49.564;17.412;2023-02-22T03:19:26;98212.16;;;6.08;100.00
73429;BME280;61643;49.564;17.412;2023-02-22T03:24:17;98216.94;;;6.17;100.00
73429;BME280;61643;49.564;17.412;2023-02-22T03:26:52;98216.09;;;6.17;100.00
73429;BME280;61643;49.564;17.412;2023-02-22T03:29:21;98213.09;;;6.13;100.00
73429;BME280;61643;49.564;17.412;2023-02-22T03:31:52;98221.59;;;5.92;100.00
73429;BME280;61643;49.564;17.412;2023-02-22T03:34:25;98212.38;;;6.06;100.00
73429;BME280;61643;49.564;17.412;2023-02-22T03:36:56;98211.66;;;5.99;100.00
73429;BME280;61643;49.564;17.412;2023-02-22T03:39:24;98214.94;;;6.13;100.00
73429;BME280;61643;49.564;17.412;2023-02-22T03:42:31;98209.53;;;6.01;100.00
73429;BME280;61643;49.564;17.412;2023-02-22T03:45:02;98223.25;;;6.05;100.00
73429;BME280;61643;49.564;17.412;2023-02-22T03:47:36;98218.38;;;6.02;100.00
73429;BME280;61643;49.564;17.412;2023-02-22T03:50:09;98221.16;;;5.95;100.00
73429;BME280;61643;49.564;17.412;2023-02-22T03:52:36;98213.13;;;5.95;100.00
73429;BME280;61643;49.564;17.412;2023-02-22T03:55:03;98225.19;;;5.86;100.00
73429;BME280;61643;49.564;17.412;2023-02-22T03:57:38;98219.66;;;5.99;100.00
73429;BME280;61643;49.564;17.412;2023-02-22T04:00:09;98227.31;;;5.96;100.00
73429;BME280;61643;49.564;17.412;2023-02-22T04:02:36;98233.94;;;5.93;100.00
73429;BME280;61643;49.564;17.412;2023-02-22T04:05:02;98218.16;;;6.03;100.00
73429;BME280;61643;49.564;17.412;2023-02-22T04:07:28;98218.63;;;6.00;100.00
73429;BME280;61643;49.564;17.412;2023-02-22T04:09:54;98218.63;;;6.00;100.00
73429;BME280;61643;49.564;17.412;2023-02-22T04:12:20;98220.59;;;6.05;100.00
73429;BME280;61643;49.564;17.412;2023-02-22T04:14:46;98225.13;;;6.04;100.00
73429;BME280;61643;49.564;17.412;2023-02-22T04:17:12;98213.03;;;6.02;100.00
73429;BME280;61643;49.564;17.412;2023-02-22T04:19:38;98215.03;;;6.06;100.00
73429;BME280;61643;49.564;17.412;2023-02-22T04:22:04;98222.00;;;6.07;100.00
73429;BME280;61643;49.564;17.412;2023-02-22T04:24:31;98227.88;;;5.98;100.00
73429;BME280;61643;49.564;17.412;2023-02-22T04:26:57;98225.69;;;5.94;100.00
73429;BME280;61643;49.564;17.412;2023-02-22T04:29:23;98227.69;;;5.81;100.00
73429;BME280;61643;49.564;17.412;2023-02-22T04:31:49;98224.50;;;5.90;100.00
73429;BME280;61643;49.564;17.412;2023-02-22T04:34:15;98230.00;;;5.77;100.00
73429;BME280;61643;49.564;17.412;2023-02-22T04:36:41;98230.28;;;5.87;100.00
73429;BME280;61643;49.564;17.412;2023-02-22T04:39:09;98221.59;;;5.92;100.00
73429;BME280;61643;49.564;17.412;2023-02-22T04:41:35;98230.72;;;5.84;100.00
73429;BME280;61643;49.564;17.412;2023-02-22T04:44:01;98228.25;;;5.83;100.00
73429;BME280;61643;49.564;17.412;2023-02-22T04:46:27;98221.47;;;5.87;100.00
73429;BME280;61643;49.564;17.412;2023-02-22T04:48:53;98221.25;;;5.88;100.00
73429;BME280;61643;49.564;17.412;2023-02-22T04:51:19;98215.44;;;5.91;100.00
73429;BME280;61643;49.564;17.412;2023-02-22T04:53:45;98216.72;;;5.89;100.00
73429;BME280;61643;49.564;17.412;2023-02-22T04:56:11;98221.25;;;5.88;100.00
73429;BME280;61643;49.564;17.412;2023-02-22T04:58:37;98226.34;;;5.90;100.00
73429;BME280;61643;49.564;17.412;2023-02-22T05:01:03;98227.06;;;5.79;100.00
73429;BME280;61643;49.564;17.412;2023-02-22T05:03:29;98228.28;;;5.65;100.00
73429;BME280;61643;49.564;17.412;2023-02-22T05:05:55;98228.38;;;5.58;100.00
73429;BME280;61643;49.564;17.412;2023-02-22T05:08:21;98223.03;;;5.58;100.00
73429;BME280;61643;49.564;17.412;2023-02-22T05:10:47;98230.31;;;5.51;100.00
73429;BME280;61643;49.564;17.412;2023-02-22T05:13:13;98221.56;;;5.44;100.00
73429;BME280;61643;49.564;17.412;2023-02-22T05:15:39;98224.78;;;5.34;100.00
73429;BME280;61643;49.564;17.412;2023-02-22T05:18:05;98227.94;;;5.25;100.00
73429;BME280;61643;49.564;17.412;2023-02-22T05:20:33;98234.47;;;5.29;100.00
73429;BME280;61643;49.564;17.412;2023-02-22T05:23:02;98232.50;;;5.24;100.00
73429;BME280;61643;49.564;17.412;2023-02-22T05:25:28;98226.72;;;5.27;100.00
73429;BME280;61643;49.564;17.412;2023-02-22T05:27:56;98233.53;;;5.23;100.00
73429;BME280;61643;49.564;17.412;2023-02-22T05:30:24;98234.09;;;5.25;100.00
73429;BME280;61643;49.564;17.412;2023-02-22T05:32:51;98235.16;;;5.24;100.00
73429;BME280;61643;49.564;17.412;2023-02-22T05:35:19;98239.31;;;5.20;100.00
73429;BME280;61643;49.564;17.412;2023-02-22T05:37:45;98237.22;;;5.22;100.00
73429;BME280;61643;49.564;17.412;2023-02-22T05:40:13;98237.66;;;5.19;100.00
73429;BME280;61643;49.564;17.412;2023-02-22T05:42:41;98245.28;;;5.16;100.00
73429;BME280;61643;49.564;17.412;2023-02-22T05:45:07;98250.19;;;5.19;100.00
73429;BME280;61643;49.564;17.412;2023-02-22T05:47:34;98247.53;;;5.19;100.00
73429;BME280;61643;49.564;17.412;2023-02-22T05:49:59;98251.22;;;5.18;100.00
73429;BME280;61643;49.564;17.412;2023-02-22T05:52:26;98254.88;;;5.23;100.00
73429;BME280;61643;49.564;17.412;2023-02-22T05:54:52;98260.19;;;5.23;100.00
73429;BME280;61643;49.564;17.412;2023-02-22T05:57:18;98254.50;;;5.20;100.00
73429;BME280;61643;49.564;17.412;2023-02-22T05:59:44;98256.72;;;5.23;100.00
73429;BME280;61643;49.564;17.412;2023-02-22T06:02:10;98256.13;;;5.21;100.00
73429;BME280;61643;49.564;17.412;2023-02-22T06:04:36;98268.66;;;5.20;100.00
73429;BME280;61643;49.564;17.412;2023-02-22T06:07:02;98268.22;;;5.23;100.00
73429;BME280;61643;49.564;17.412;2023-02-22T06:09:28;98273.25;;;5.31;100.00
73429;BME280;61643;49.564;17.412;2023-02-22T06:11:54;98265.84;;;5.33;100.00
73429;BME280;61643;49.564;17.412;2023-02-22T06:14:20;98277.09;;;5.35;100.00
73429;BME280;61643;49.564;17.412;2023-02-22T06:16:52;98285.78;;;5.31;100.00
73429;BME280;61643;49.564;17.412;2023-02-22T06:19:17;98287.25;;;5.27;100.00
73429;BME280;61643;49.564;17.412;2023-02-22T06:21:54;98288.09;;;5.27;100.00
73429;BME280;61643;49.564;17.412;2023-02-22T06:24:22;98293.88;;;5.24;100.00
73429;BME280;61643;49.564;17.412;2023-02-22T06:27:00;98300.69;;;5.38;100.00
73429;BME280;61643;49.564;17.412;2023-02-22T06:29:27;98301.72;;;5.37;100.00
73429;BME280;61643;49.564;17.412;2023-02-22T06:31:54;98299.94;;;5.31;100.00
73429;BME280;61643;49.564;17.412;2023-02-22T06:34:21;98294.25;;;5.28;100.00
73429;BME280;61643;49.564;17.412;2023-02-22T06:36:47;98295.25;;;5.27;100.00
73429;BME280;61643;49.564;17.412;2023-02-22T06:39:14;98295.09;;;5.22;100.00
73429;BME280;61643;49.564;17.412;2023-02-22T06:41:42;98300.00;;;5.25;100.00
73429;BME280;61643;49.564;17.412;2023-02-22T06:44:09;98298.97;;;5.26;100.00
73429;BME280;61643;49.564;17.412;2023-02-22T06:46:36;98288.09;;;5.27;100.00
73429;BME280;61643;49.564;17.412;2023-02-22T06:49:02;98298.00;;;5.20;100.00
73429;BME280;61643;49.564;17.412;2023-02-22T06:51:29;98308.44;;;5.22;100.00
73429;BME280;61643;49.564;17.412;2023-02-22T06:53:55;98294.50;;;5.20;100.00
73429;BME280;61643;49.564;17.412;2023-02-22T06:56:21;98305.13;;;5.26;100.00
73429;BME280;61643;49.564;17.412;2023-02-22T06:58:47;98300.81;;;5.25;100.00
73429;BME280;61643;49.564;17.412;2023-02-22T07:01:16;98298.75;;;5.27;100.00
73429;BME280;61643;49.564;17.412;2023-02-22T07:03:42;98310.47;;;5.26;100.00
73429;BME280;61643;49.564;17.412;2023-02-22T07:06:08;98307.63;;;5.21;100.00
73429;BME280;61643;49.564;17.412;2023-02-22T07:08:35;98303.38;;;5.14;100.00
73429;BME280;61643;49.564;17.412;2023-02-22T07:11:02;98310.53;;;5.20;100.00
73429;BME280;61643;49.564;17.412;2023-02-22T07:13:28;98309.25;;;5.22;100.00
73429;BME280;61643;49.564;17.412;2023-02-22T07:15:54;98309.34;;;5.34;100.00
73429;BME280;61643;49.564;17.412;2023-02-22T07:18:20;98310.38;;;5.33;100.00
73429;BME280;61643;49.564;17.412;2023-02-22T07:20:46;98315.50;;;5.34;100.00
73429;BME280;61643;49.564;17.412;2023-02-22T07:23:16;98312.41;;;5.37;100.00
73429;BME280;61643;49.564;17.412;2023-02-22T07:25:42;98309.94;;;5.36;100.00
73429;BME280;61643;49.564;17.412;2023-02-22T07:28:09;98314.41;;;5.42;100.00
73429;BME280;61643;49.564;17.412;2023-02-22T07:30:38;98318.31;;;5.39;100.00
73429;BME280;61643;49.564;17.412;2023-02-22T07:33:07;98314.69;;;5.34;100.00
73429;BME280;61643;49.564;17.412;2023-02-22T07:35:36;98315.88;;;5.38;100.00
73429;BME280;61643;49.564;17.412;2023-02-22T07:38:06;98313.34;;;5.43;100.00
73429;BME280;61643;49.564;17.412;2023-02-22T07:40:35;98318.47;;;5.44;100.00
73429;BME280;61643;49.564;17.412;2023-02-22T07:43:04;98312.56;;;5.42;100.00
73429;BME280;61643;49.564;17.412;2023-02-22T07:45:32;98320.63;;;5.54;100.00
73429;BME280;61643;49.564;17.412;2023-02-22T07:47:59;98316.19;;;5.48;100.00
73429;BME280;61643;49.564;17.412;2023-02-22T07:50:28;98313.00;;;5.58;100.00
73429;BME280;61643;49.564;17.412;2023-02-22T07:52:56;98316.63;;;5.45;100.00
73429;BME280;61643;49.564;17.412;2023-02-22T07:55:26;98310.69;;;5.43;100.00
73429;BME280;61643;49.564;17.412;2023-02-22T07:57:55;98312.69;;;5.47;100.00
73429;BME280;61643;49.564;17.412;2023-02-22T08:02:52;98304.78;;;5.59;100.00
73429;BME280;61643;49.564;17.412;2023-02-22T08:05:20;98311.50;;;5.62;100.00
73429;BME280;61643;49.564;17.412;2023-02-22T08:07:46;98309.66;;;5.62;100.00
73429;BME280;61643;49.564;17.412;2023-02-22T08:10:13;98305.72;;;5.65;100.00
73429;BME280;61643;49.564;17.412;2023-02-22T08:12:40;98313.88;;;5.70;100.00
73429;BME280;61643;49.564;17.412;2023-02-22T08:15:07;98315.75;;;5.69;100.00
73429;BME280;61643;49.564;17.412;2023-02-22T08:17:34;98317.66;;;5.62;100.00
73429;BME280;61643;49.564;17.412;2023-02-22T08:20:00;98308.19;;;5.66;100.00
73429;BME280;61643;49.564;17.412;2023-02-22T08:22:26;98319.81;;;5.72;100.00
73429;BME280;61643;49.564;17.412;2023-02-22T08:24:53;98320.34;;;5.80;100.00
73429;BME280;61643;49.564;17.412;2023-02-22T08:27:24;98317.97;;;5.72;100.00
73429;BME280;61643;49.564;17.412;2023-02-22T08:29:50;98317.81;;;5.85;100.00
73429;BME280;61643;49.564;17.412;2023-02-22T08:32:16;98311.81;;;5.90;100.00
73429;BME280;61643;49.564;17.412;2023-02-22T08:34:42;98321.47;;;5.91;100.00
73429;BME280;61643;49.564;17.412;2023-02-22T08:37:08;98318.50;;;5.99;100.00
73429;BME280;61643;49.564;17.412;2023-02-22T08:39:34;98307.44;;;5.96;100.00
73429;BME280;61643;49.564;17.412;2023-02-22T08:42:00;98316.13;;;5.91;99.58
73429;BME280;61643;49.564;17.412;2023-02-22T08:44:26;98318.06;;;6.02;99.34
73429;BME280;61643;49.564;17.412;2023-02-22T08:46:52;98324.03;;;6.16;99.69
73429;BME280;61643;49.564;17.412;2023-02-22T08:49:18;98322.13;;;6.05;99.52
73429;BME280;61643;49.564;17.412;2023-02-22T08:51:45;98322.84;;;6.12;100.00
73429;BME280;61643;49.564;17.412;2023-02-22T08:54:12;98319.66;;;6.21;99.75
73429;BME280;61643;49.564;17.412;2023-02-22T08:56:38;98314.47;;;6.38;97.97
73429;BME280;61643;49.564;17.412;2023-02-22T08:59:04;98318.34;;;6.42;98.66
73429;BME280;61643;49.564;17.412;2023-02-22T09:01:30;98308.56;;;6.36;98.42
73429;BME280;61643;49.564;17.412;2023-02-22T09:03:57;98315.09;;;6.40;98.58
73429;BME280;61643;49.564;17.412;2023-02-22T09:06:23;98314.63;;;6.43;97.86
73429;BME280;61643;49.564;17.412;2023-02-22T09:08:49;98312.84;;;6.37;97.85
73429;BME280;61643;49.564;17.412;2023-02-22T09:11:15;98311.00;;;6.37;97.16
73429;BME280;61643;49.564;17.412;2023-02-22T09:13:41;98318.34;;;6.42;95.93
73429;BME280;61643;49.564;17.412;2023-02-22T09:16:07;98313.66;;;6.37;94.94
73429;BME280;61643;49.564;17.412;2023-02-22T09:18:33;98311.53;;;6.28;94.65
73429;BME280;61643;49.564;17.412;2023-02-22T09:20:59;98314.38;;;6.44;93.45
73429;BME280;61643;49.564;17.412;2023-02-22T09:23:25;98323.47;;;6.55;92.50
73429;BME280;61643;49.564;17.412;2023-02-22T09:25:52;98315.81;;;6.59;92.96
73429;BME280;61643;49.564;17.412;2023-02-22T09:28:17;98319.22;;;6.66;93.88
73429;BME280;61643;49.564;17.412;2023-02-22T09:30:44;98319.56;;;6.69;92.29
73429;BME280;61643;49.564;17.412;2023-02-22T09:33:16;98319.34;;;6.71;90.35
73429;BME280;61643;49.564;17.412;2023-02-22T09:35:43;98329.00;;;6.72;92.36
73429;BME280;61643;49.564;17.412;2023-02-22T09:38:20;98332.75;;;6.82;91.75
73429;BME280;61643;49.564;17.412;2023-02-22T09:40:53;98330.53;;;6.79;91.09
73429;BME280;61643;49.564;17.412;2023-02-22T09:43:24;98324.13;;;6.80;89.73
73429;BME280;61643;49.564;17.412;2023-02-22T09:46:29;98327.75;;;6.86;91.91
73429;BME280;61643;49.564;17.412;2023-02-22T09:49:20;98326.94;;;6.85;90.22
73429;BME280;61643;49.564;17.412;2023-02-22T09:52:11;98326.94;;;6.85;90.39
73429;BME280;61643;49.564;17.412;2023-02-22T09:54:43;98324.25;;;6.85;89.74
73429;BME280;61643;49.564;17.412;2023-02-22T09:57:19;98320.31;;;6.88;88.60
73429;BME280;61643;49.564;17.412;2023-02-22T10:00:11;98322.06;;;6.94;91.12
73429;BME280;61643;49.564;17.412;2023-02-22T10:02:51;98324.16;;;6.92;90.46
73429;BME280;61643;49.564;17.412;2023-02-22T10:05:28;98318.69;;;6.87;88.82
73429;BME280;61643;49.564;17.412;2023-02-22T10:08:01;98313.47;;;7.04;88.33
73429;BME280;61643;49.564;17.412;2023-02-22T10:10:37;98307.06;;;7.05;89.18
73429;BME280;61643;49.564;17.412;2023-02-22T10:19:18;98304.03;;;7.36;89.72
73429;BME280;61643;49.564;17.412;2023-02-22T10:25:01;98300.53;;;7.47;89.23
73429;BME280;61643;49.564;17.412;2023-02-22T10:27:33;98301.84;;;7.45;88.04
73429;BME280;61643;49.564;17.412;2023-02-22T10:30:29;98301.59;;;7.34;87.32
73429;BME280;61643;49.564;17.412;2023-02-22T10:33:02;98307.88;;;7.52;87.90
73429;BME280;61643;49.564;17.412;2023-02-22T10:35:34;98307.84;;;7.63;87.87
73429;BME280;61643;49.564;17.412;2023-02-22T10:38:18;98307.84;;;7.75;88.05
73429;BME280;61643;49.564;17.412;2023-02-22T10:43:23;98296.69;;;7.55;88.26
73429;BME280;61643;49.564;17.412;2023-02-22T10:45:54;98298.06;;;7.69;87.27
73429;BME280;61643;49.564;17.412;2023-02-22T10:48:23;98297.03;;;7.58;85.16
73429;BME280;61643;49.564;17.412;2023-02-22T10:50:51;98288.19;;;7.58;86.93
73429;BME280;61643;49.564;17.412;2023-02-22T10:53:18;98298.06;;;7.69;86.84
73429;BME280;61643;49.564;17.412;2023-02-22T10:58:43;98297.72;;;7.77;87.29
73429;BME280;61643;49.564;17.412;2023-02-22T11:01:39;98286.72;;;7.90;87.01
73429;BME280;61643;49.564;17.412;2023-02-22T11:06:35;98283.19;;;8.01;85.15
73429;BME280;61643;49.564;17.412;2023-02-22T11:09:30;98280.22;;;8.14;84.84
73429;BME280;61643;49.564;17.412;2023-02-22T11:12:10;98280.13;;;8.09;83.75
73429;BME280;61643;49.564;17.412;2023-02-22T11:14:41;98285.44;;;8.21;85.47
73429;BME280;61643;49.564;17.412;2023-02-22T11:17:07;98281.13;;;8.31;84.90
73429;BME280;61643;49.564;17.412;2023-02-22T11:19:34;98282.84;;;8.26;85.15
73429;BME280;61643;49.564;17.412;2023-02-22T11:22:09;98281.53;;;8.40;84.32
73429;BME280;61643;49.564;17.412;2023-02-22T11:25:05;98280.00;;;8.44;84.49
73429;BME280;61643;49.564;17.412;2023-02-22T11:27:38;98279.59;;;8.52;84.30
73429;BME280;61643;49.564;17.412;2023-02-22T11:30:25;98265.59;;;8.50;84.53
73429;BME280;61643;49.564;17.412;2023-02-22T11:32:57;98269.03;;;8.46;83.93
73429;BME280;61643;49.564;17.412;2023-02-22T11:37:53;98268.38;;;8.55;82.72
73429;BME280;61643;49.564;17.412;2023-02-22T11:40:33;98266.19;;;8.52;84.52
73429;BME280;61643;49.564;17.412;2023-02-22T11:43:17;98267.63;;;8.43;84.16
73429;BME280;61643;49.564;17.412;2023-02-22T11:45:57;98270.25;;;8.38;83.75
73429;BME280;61643;49.564;17.412;2023-02-22T11:48:32;98264.66;;;8.28;84.10
73429;BME280;61643;49.564;17.412;2023-02-22T11:53:59;98260.34;;;8.38;83.22
73429;BME280;61643;49.564;17.412;2023-02-22T11:56:38;98264.94;;;8.43;84.10
73429;BME280;61643;49.564;17.412;2023-02-22T11:59:37;98258.88;;;8.48;83.27
73429;BME280;61643;49.564;17.412;2023-02-22T12:21:35;98233.69;;;8.82;81.68
73429;BME280;61643;49.564;17.412;2023-02-22T12:26:40;98235.31;;;8.83;82.11
73429;BME280;61643;49.564;17.412;2023-02-22T12:29:35;98235.94;;;8.90;81.97
73429;BME280;61643;49.564;17.412;2023-02-22T12:34:50;98232.06;;;8.81;79.68
73429;BME280;61643;49.564;17.412;2023-02-22T12:37:36;98229.94;;;8.66;79.72
73429;BME280;61643;49.564;17.412;2023-02-22T12:40:15;98216.53;;;8.66;80.30
73429;BME280;61643;49.564;17.412;2023-02-22T12:45:48;98221.66;;;8.68;79.10
73429;BME280;61643;49.564;17.412;2023-02-22T12:48:33;98213.78;;;8.78;79.98
73429;BME280;61643;49.564;17.412;2023-02-22T12:54:04;98205.28;;;9.03;80.67
73429;BME280;61643;49.564;17.412;2023-02-22T12:56:47;98211.78;;;8.90;80.05
73429;BME280;61643;49.564;17.412;2023-02-22T12:59:20;98205.88;;;8.88;80.23
73429;BME280;61643;49.564;17.412;2023-02-22T13:01:57;98210.97;;;9.06;80.22
73429;BME280;61643;49.564;17.412;2023-02-22T13:04:25;98209.66;;;9.09;78.87
73429;BME280;61643;49.564;17.412;2023-02-22T13:18:13;98205.50;;;9.01;80.74
73429;BME280;61643;49.564;17.412;2023-02-22T13:26:36;98205.72;;;9.16;78.71
73429;BME280;61643;49.564;17.412;2023-02-22T13:29:12;98206.38;;;9.23;78.01
73429;BME280;61643;49.564;17.412;2023-02-22T13:50:57;98196.53;;;9.12;78.61
73429;BME280;61643;49.564;17.412;2023-02-22T13:53:34;98210.09;;;9.01;77.43
73429;BME280;61643;49.564;17.412;2023-02-22T13:56:04;98203.09;;;9.00;77.62
73429;BME280;61643;49.564;17.412;2023-02-22T13:58:30;98197.22;;;9.03;79.19
73429;BME280;61643;49.564;17.412;2023-02-22T14:00:57;98196.66;;;9.01;78.50
73429;BME280;61643;49.564;17.412;2023-02-22T14:03:38;98197.03;;;9.09;79.47
73429;BME280;61643;49.564;17.412;2023-02-22T14:06:37;98203.94;;;9.22;80.09
73429;BME280;61643;49.564;17.412;2023-02-22T14:15:13;98193.81;;;9.07;78.39
73429;BME280;61643;49.564;17.412;2023-02-22T14:17:47;98189.00;;;9.09;79.15
73429;BME280;61643;49.564;17.412;2023-02-22T14:22:41;98190.69;;;9.15;79.88
73429;BME280;61643;49.564;17.412;2023-02-22T14:25:34;98186.06;;;9.11;79.48
73429;BME280;61643;49.564;17.412;2023-02-22T14:28:04;98189.56;;;9.11;81.25
73429;BME280;61643;49.564;17.412;2023-02-22T14:30:32;98183.63;;;9.09;81.75
73429;BME280;61643;49.564;17.412;2023-02-22T14:32:59;98181.97;;;9.08;80.67
73429;BME280;61643;49.564;17.412;2023-02-22T14:35:33;98187.84;;;9.05;81.54
73429;BME280;61643;49.564;17.412;2023-02-22T14:38:03;98184.03;;;9.01;80.97
73429;BME280;61643;49.564;17.412;2023-02-22T14:40:36;98187.31;;;9.03;82.00
73429;BME280;61643;49.564;17.412;2023-02-22T14:43:11;98181.13;;;9.03;81.31
73429;BME280;61643;49.564;17.412;2023-02-22T14:45:51;98179.47;;;9.02;81.75
73429;BME280;61643;49.564;17.412;2023-02-22T14:48:29;98183.25;;;9.01;81.11
73429;BME280;61643;49.564;17.412;2023-02-22T14:51:28;98182.44;;;9.00;80.97
73429;BME280;61643;49.564;17.412;2023-02-22T14:59:26;98177.16;;;8.88;81.68
73429;BME280;61643;49.564;17.412;2023-02-22T15:02:09;98176.56;;;8.86;82.67
73429;BME280;61643;49.564;17.412;2023-02-22T15:04:35;98175.94;;;8.79;82.45
73429;BME280;61643;49.564;17.412;2023-02-22T15:07:24;98176.19;;;8.78;83.32
73429;BME280;61643;49.564;17.412;2023-02-22T15:10:21;98176.69;;;8.75;83.82
73429;BME280;61643;49.564;17.412;2023-02-22T15:12:52;98178.78;;;8.73;85.00
73429;BME280;61643;49.564;17.412;2023-02-22T15:15:23;98180.94;;;8.71;85.27
73429;BME280;61643;49.564;17.412;2023-02-22T15:17:56;98168.66;;;8.58;84.35
73429;BME280;61643;49.564;17.412;2023-02-22T15:20:24;98183.59;;;8.54;84.46